Terminal Aerodrome Forecast
Issued by NWS Jackson, MS

Home | Current Version | Previous Version | Text Only | Print | Product List | Glossary On
Versions: 1 2 3 4 5 6 7 8 9 10 11 12 13 14
000
FTUS44 KMEG 280133 AAA
TAFTUP
TAF AMD
KTUP 280133Z 2802/2824 16006KT P6SM VCSH SCT045 OVC100
      TEMPO 2802/2804 6SM -SHRA BR BKN045
     FM280400 16006KT 6SM BR VCSH SCT025 OVC045
     FM281100 21006KT 4SM -SHRA BR BKN010 OVC025
      TEMPO 2812/2816 2SM TSRA SCT007 OVC010CB
     FM281600 25010KT 6SM -SHRA BR VCTS BKN020CB OVC045=

USA.gov is the U.S. government's official web portal to all federal, state and local government web resources and services.